sensor_id;sensor_type;location;lat;lon;timestamp;P1;durP1;ratioP1;P2;durP2;ratioP2
61739;SDS011;47645;45.288;12.038;2024-02-26T00:02:41;17.7;;;10.6;;
61739;SDS011;47645;45.288;12.038;2024-02-26T00:12:42;18.7;;;12.0;;
61739;SDS011;47645;45.288;12.038;2024-02-26T00:22:42;13.3;;;8.6;;
61739;SDS011;47645;45.288;12.038;2024-02-26T00:32:43;15.3;;;10.5;;
61739;SDS011;47645;45.288;12.038;2024-02-26T00:42:46;14.5;;;9.6;;
61739;SDS011;47645;45.288;12.038;2024-02-26T00:52:44;18.4;;;11.4;;
61739;SDS011;47645;45.288;12.038;2024-02-26T01:02:46;17.1;;;11.6;;
61739;SDS011;47645;45.288;12.038;2024-02-26T01:12:45;12.6;;;8.6;;
61739;SDS011;47645;45.288;12.038;2024-02-26T01:22:46;16.6;;;11.2;;
61739;SDS011;47645;45.288;12.038;2024-02-26T01:32:46;15.4;;;11.0;;
61739;SDS011;47645;45.288;12.038;2024-02-26T01:42:47;16.7;;;10.8;;
61739;SDS011;47645;45.288;12.038;2024-02-26T01:52:47;15.2;;;9.9;;
61739;SDS011;47645;45.288;12.038;2024-02-26T02:02:49;16.4;;;12.0;;
61739;SDS011;47645;45.288;12.038;2024-02-26T02:12:48;19.7;;;12.4;;
61739;SDS011;47645;45.288;12.038;2024-02-26T02:22:49;21.1;;;13.4;;
61739;SDS011;47645;45.288;12.038;2024-02-26T02:32:49;17.1;;;11.6;;
61739;SDS011;47645;45.288;12.038;2024-02-26T02:42:50;15.4;;;11.5;;
61739;SDS011;47645;45.288;12.038;2024-02-26T02:52:50;14.5;;;10.9;;
61739;SDS011;47645;45.288;12.038;2024-02-26T03:02:51;12.8;;;9.4;;
61739;SDS011;47645;45.288;12.038;2024-02-26T03:12:51;15.7;;;10.6;;
61739;SDS011;47645;45.288;12.038;2024-02-26T03:22:52;14.6;;;9.8;;
61739;SDS011;47645;45.288;12.038;2024-02-26T03:32:53;13.5;;;9.7;;
61739;SDS011;47645;45.288;12.038;2024-02-26T03:42:54;12.3;;;8.8;;
61739;SDS011;47645;45.288;12.038;2024-02-26T03:52:54;10.0;;;7.3;;
61739;SDS011;47645;45.288;12.038;2024-02-26T04:02:54;11.1;;;8.9;;
61739;SDS011;47645;45.288;12.038;2024-02-26T04:12:55;9.4;;;7.1;;
61739;SDS011;47645;45.288;12.038;2024-02-26T04:22:56;12.6;;;9.5;;
61739;SDS011;47645;45.288;12.038;2024-02-26T04:32:56;12.3;;;8.4;;
61739;SDS011;47645;45.288;12.038;2024-02-26T04:42:57;9.9;;;8.1;;
61739;SDS011;47645;45.288;12.038;2024-02-26T04:52:57;8.6;;;6.7;;
61739;SDS011;47645;45.288;12.038;2024-02-26T05:02:58;9.9;;;7.6;;
61739;SDS011;47645;45.288;12.038;2024-02-26T05:12:59;8.6;;;6.7;;
61739;SDS011;47645;45.288;12.038;2024-02-26T05:22:59;10.2;;;7.2;;
61739;SDS011;47645;45.288;12.038;2024-02-26T05:33:00;11.3;;;7.8;;
61739;SDS011;47645;45.288;12.038;2024-02-26T05:43:01;11.7;;;9.2;;
61739;SDS011;47645;45.288;12.038;2024-02-26T05:53:01;11.5;;;9.5;;
61739;SDS011;47645;45.288;12.038;2024-02-26T06:03:02;13.8;;;10.2;;
61739;SDS011;47645;45.288;12.038;2024-02-26T06:13:02;13.5;;;10.0;;
61739;SDS011;47645;45.288;12.038;2024-02-26T06:23:03;14.0;;;10.3;;
61739;SDS011;47645;45.288;12.038;2024-02-26T06:33:03;19.2;;;10.3;;
61739;SDS011;47645;45.288;12.038;2024-02-26T06:43:04;16.8;;;11.2;;
61739;SDS011;47645;45.288;12.038;2024-02-26T06:53:04;17.5;;;12.7;;
61739;SDS011;47645;45.288;12.038;2024-02-26T07:03:05;19.3;;;13.1;;
61739;SDS011;47645;45.288;12.038;2024-02-26T07:13:05;18.3;;;13.1;;
61739;SDS011;47645;45.288;12.038;2024-02-26T07:23:07;18.2;;;12.1;;
61739;SDS011;47645;45.288;12.038;2024-02-26T07:33:07;20.4;;;11.8;;
61739;SDS011;47645;45.288;12.038;2024-02-26T07:43:07;15.7;;;11.7;;
61739;SDS011;47645;45.288;12.038;2024-02-26T07:53:08;18.2;;;12.2;;
61739;SDS011;47645;45.288;12.038;2024-02-26T08:03:08;17.1;;;12.1;;
61739;SDS011;47645;45.288;12.038;2024-02-26T08:13:09;17.9;;;11.5;;
61739;SDS011;47645;45.288;12.038;2024-02-26T08:23:09;19.7;;;13.2;;
61739;SDS011;47645;45.288;12.038;2024-02-26T08:33:10;20.9;;;14.2;;
61739;SDS011;47645;45.288;12.038;2024-02-26T08:43:10;16.6;;;12.1;;
61739;SDS011;47645;45.288;12.038;2024-02-26T08:53:11;20.7;;;14.5;;
61739;SDS011;47645;45.288;12.038;2024-02-26T09:03:12;19.0;;;13.6;;
61739;SDS011;47645;45.288;12.038;2024-02-26T09:13:12;19.7;;;14.6;;
61739;SDS011;47645;45.288;12.038;2024-02-26T09:23:13;24.8;;;16.0;;
61739;SDS011;47645;45.288;12.038;2024-02-26T09:33:13;29.0;;;16.3;;
61739;SDS011;47645;45.288;12.038;2024-02-26T09:43:14;32.4;;;20.0;;
61739;SDS011;47645;45.288;12.038;2024-02-26T09:53:15;26.8;;;15.8;;
61739;SDS011;47645;45.288;12.038;2024-02-26T10:03:16;21.6;;;13.5;;
61739;SDS011;47645;45.288;12.038;2024-02-26T10:13:16;21.9;;;12.6;;
61739;SDS011;47645;45.288;12.038;2024-02-26T10:23:17;18.6;;;10.2;;
61739;SDS011;47645;45.288;12.038;2024-02-26T10:33:17;19.0;;;11.3;;
61739;SDS011;47645;45.288;12.038;2024-02-26T10:43:18;17.1;;;8.6;;
61739;SDS011;47645;45.288;12.038;2024-02-26T10:53:20;14.2;;;6.6;;
61739;SDS011;47645;45.288;12.038;2024-02-26T11:03:20;15.3;;;7.2;;
61739;SDS011;47645;45.288;12.038;2024-02-26T11:13:21;13.6;;;7.7;;
61739;SDS011;47645;45.288;12.038;2024-02-26T11:23:21;14.1;;;7.8;;
61739;SDS011;47645;45.288;12.038;2024-02-26T11:33:21;14.7;;;8.0;;
61739;SDS011;47645;45.288;12.038;2024-02-26T11:43:23;14.1;;;7.3;;
61739;SDS011;47645;45.288;12.038;2024-02-26T11:53:24;12.3;;;6.2;;
61739;SDS011;47645;45.288;12.038;2024-02-26T12:03:23;11.6;;;5.3;;
61739;SDS011;47645;45.288;12.038;2024-02-26T12:13:29;8.2;;;4.0;;
61739;SDS011;47645;45.288;12.038;2024-02-26T12:23:25;8.7;;;4.2;;
61739;SDS011;47645;45.288;12.038;2024-02-26T12:33:26;8.8;;;4.3;;
61739;SDS011;47645;45.288;12.038;2024-02-26T12:43:26;9.5;;;2.6;;
61739;SDS011;47645;45.288;12.038;2024-02-26T12:53:27;6.3;;;2.1;;
61739;SDS011;47645;45.288;12.038;2024-02-26T13:03:27;7.7;;;1.9;;
61739;SDS011;47645;45.288;12.038;2024-02-26T13:13:28;5.2;;;2.0;;
61739;SDS011;47645;45.288;12.038;2024-02-26T13:23:29;5.5;;;2.2;;
61739;SDS011;47645;45.288;12.038;2024-02-26T13:33:30;6.1;;;1.9;;
61739;SDS011;47645;45.288;12.038;2024-02-26T13:43:30;5.8;;;2.0;;
61739;SDS011;47645;45.288;12.038;2024-02-26T13:53:31;7.1;;;2.3;;
61739;SDS011;47645;45.288;12.038;2024-02-26T14:03:32;7.5;;;2.0;;
61739;SDS011;47645;45.288;12.038;2024-02-26T14:13:33;6.5;;;1.9;;
61739;SDS011;47645;45.288;12.038;2024-02-26T14:23:33;5.3;;;2.1;;
61739;SDS011;47645;45.288;12.038;2024-02-26T14:33:34;3.8;;;1.4;;
61739;SDS011;47645;45.288;12.038;2024-02-26T14:43:35;5.9;;;1.7;;
61739;SDS011;47645;45.288;12.038;2024-02-26T14:53:36;4.6;;;1.8;;
61739;SDS011;47645;45.288;12.038;2024-02-26T15:03:36;6.9;;;1.9;;
61739;SDS011;47645;45.288;12.038;2024-02-26T15:13:37;3.4;;;1.5;;
61739;SDS011;47645;45.288;12.038;2024-02-26T15:23:38;5.9;;;1.9;;
61739;SDS011;47645;45.288;12.038;2024-02-26T15:33:39;3.8;;;1.6;;
61739;SDS011;47645;45.288;12.038;2024-02-26T15:43:39;8.3;;;2.5;;
61739;SDS011;47645;45.288;12.038;2024-02-26T15:53:40;6.8;;;2.7;;
61739;SDS011;47645;45.288;12.038;2024-02-26T16:03:42;5.9;;;2.1;;
61739;SDS011;47645;45.288;12.038;2024-02-26T16:13:42;4.8;;;2.5;;
61739;SDS011;47645;45.288;12.038;2024-02-26T16:23:43;8.9;;;3.2;;
61739;SDS011;47645;45.288;12.038;2024-02-26T16:33:43;9.9;;;4.1;;
61739;SDS011;47645;45.288;12.038;2024-02-26T16:43:44;11.6;;;4.3;;
61739;SDS011;47645;45.288;12.038;2024-02-26T16:53:45;11.6;;;6.3;;
61739;SDS011;47645;45.288;12.038;2024-02-26T17:03:48;9.8;;;6.1;;
61739;SDS011;47645;45.288;12.038;2024-02-26T17:13:47;9.3;;;5.4;;
61739;SDS011;47645;45.288;12.038;2024-02-26T17:23:48;9.2;;;5.6;;
61739;SDS011;47645;45.288;12.038;2024-02-26T17:33:49;10.4;;;6.7;;
61739;SDS011;47645;45.288;12.038;2024-02-26T17:43:48;14.6;;;6.8;;
61739;SDS011;47645;45.288;12.038;2024-02-26T17:53:49;12.1;;;6.2;;
61739;SDS011;47645;45.288;12.038;2024-02-26T18:03:54;12.7;;;7.2;;
61739;SDS011;47645;45.288;12.038;2024-02-26T18:13:57;12.4;;;6.6;;
61739;SDS011;47645;45.288;12.038;2024-02-26T18:23:54;11.2;;;6.1;;
61739;SDS011;47645;45.288;12.038;2024-02-26T18:33:55;10.2;;;5.7;;
61739;SDS011;47645;45.288;12.038;2024-02-26T18:43:53;10.2;;;6.0;;
61739;SDS011;47645;45.288;12.038;2024-02-26T18:53:54;11.0;;;7.0;;
61739;SDS011;47645;45.288;12.038;2024-02-26T19:03:54;10.1;;;5.7;;
61739;SDS011;47645;45.288;12.038;2024-02-26T19:13:58;5.6;;;3.6;;
61739;SDS011;47645;45.288;12.038;2024-02-26T19:23:56;6.3;;;3.1;;
61739;SDS011;47645;45.288;12.038;2024-02-26T19:33:58;6.2;;;3.1;;
61739;SDS011;47645;45.288;12.038;2024-02-26T19:43:58;3.9;;;2.7;;
61739;SDS011;47645;45.288;12.038;2024-02-26T19:53:59;3.9;;;2.7;;
61739;SDS011;47645;45.288;12.038;2024-02-26T20:03:59;6.8;;;3.3;;
61739;SDS011;47645;45.288;12.038;2024-02-26T20:13:59;5.3;;;3.1;;
61739;SDS011;47645;45.288;12.038;2024-02-26T20:24:00;6.8;;;2.9;;
61739;SDS011;47645;45.288;12.038;2024-02-26T20:34:01;4.1;;;2.6;;
61739;SDS011;47645;45.288;12.038;2024-02-26T20:44:02;5.9;;;2.9;;
61739;SDS011;47645;45.288;12.038;2024-02-26T20:54:07;5.8;;;3.4;;
61739;SDS011;47645;45.288;12.038;2024-02-26T21:04:03;6.8;;;3.9;;
61739;SDS011;47645;45.288;12.038;2024-02-26T21:14:03;6.8;;;3.9;;
61739;SDS011;47645;45.288;12.038;2024-02-26T21:24:04;7.7;;;4.8;;
61739;SDS011;47645;45.288;12.038;2024-02-26T21:34:05;9.5;;;4.8;;
61739;SDS011;47645;45.288;12.038;2024-02-26T21:44:07;5.7;;;4.3;;
61739;SDS011;47645;45.288;12.038;2024-02-26T21:54:06;7.9;;;4.6;;
61739;SDS011;47645;45.288;12.038;2024-02-26T22:04:07;7.2;;;4.1;;
61739;SDS011;47645;45.288;12.038;2024-02-26T22:14:08;9.4;;;4.9;;
61739;SDS011;47645;45.288;12.038;2024-02-26T22:24:08;7.5;;;3.5;;
61739;SDS011;47645;45.288;12.038;2024-02-26T22:34:09;7.2;;;4.2;;
61739;SDS011;47645;45.288;12.038;2024-02-26T22:44:10;7.4;;;4.5;;
61739;SDS011;47645;45.288;12.038;2024-02-26T22:54:10;5.3;;;3.7;;
61739;SDS011;47645;45.288;12.038;2024-02-26T23:04:11;5.3;;;3.5;;
61739;SDS011;47645;45.288;12.038;2024-02-26T23:14:12;5.9;;;4.1;;
61739;SDS011;47645;45.288;12.038;2024-02-26T23:24:14;6.2;;;3.8;;
61739;SDS011;47645;45.288;12.038;2024-02-26T23:34:13;7.2;;;4.0;;
61739;SDS011;47645;45.288;12.038;2024-02-26T23:44:14;6.2;;;4.1;;
61739;SDS011;47645;45.288;12.038;2024-02-26T23:54:14;5.2;;;3.5;;
